createdAt,value
2018-12-21T00:00:18.505Z,985.58
2018-12-21T00:01:18.492Z,985.53
2018-12-21T00:02:18.481Z,985.52
2018-12-21T00:03:18.508Z,985.48
2018-12-21T00:04:18.462Z,985.48
2018-12-21T00:05:18.546Z,985.48
2018-12-21T00:06:18.437Z,985.47
2018-12-21T00:07:18.426Z,985.47
2018-12-21T00:08:18.439Z,985.58
2018-12-21T00:09:18.410Z,985.64
2018-12-21T00:10:18.393Z,985.78
2018-12-21T00:11:18.383Z,985.77
2018-12-21T00:12:18.371Z,985.75
2018-12-21T00:13:18.390Z,985.72
2018-12-21T00:14:18.349Z,985.67
2018-12-21T00:15:18.358Z,985.61
2018-12-21T00:16:18.330Z,985.61
2018-12-21T00:17:18.314Z,985.55
2018-12-21T00:18:18.328Z,985.60
2018-12-21T00:19:18.291Z,985.51
2018-12-21T00:20:18.293Z,985.52
2018-12-21T00:21:21.987Z,985.50
2018-12-21T00:22:18.258Z,985.48
2018-12-21T00:23:18.270Z,985.50
2018-12-21T00:24:18.240Z,985.47
2018-12-21T00:25:18.224Z,985.50
2018-12-21T00:26:18.215Z,985.45
2018-12-21T00:27:18.212Z,985.50
2018-12-21T00:28:18.237Z,985.41
2018-12-21T00:29:18.187Z,985.46
2018-12-21T00:30:18.171Z,985.49
2018-12-21T00:31:18.176Z,985.48
2018-12-21T00:32:18.149Z,985.49
2018-12-21T00:33:18.158Z,985.46
2018-12-21T00:34:18.148Z,985.45
2018-12-21T00:35:18.114Z,985.47
2018-12-21T00:36:18.107Z,985.46
2018-12-21T00:37:18.090Z,985.48
2018-12-21T00:38:18.104Z,985.48
2018-12-21T00:39:18.080Z,985.49
2018-12-21T00:40:18.056Z,985.53
2018-12-21T00:41:18.048Z,985.47
2018-12-21T00:42:18.033Z,985.52
2018-12-21T00:43:18.047Z,985.48
2018-12-21T00:44:18.011Z,985.45
2018-12-21T00:45:18.019Z,985.48
2018-12-21T00:46:17.989Z,985.38
2018-12-21T00:47:17.978Z,985.41
2018-12-21T00:48:17.991Z,985.38
2018-12-21T00:49:17.957Z,985.31
2018-12-21T00:50:17.947Z,985.30
2018-12-21T00:51:17.958Z,985.29
2018-12-21T00:52:17.922Z,985.27
2018-12-21T00:53:17.937Z,985.36
2018-12-21T00:54:17.899Z,985.28
2018-12-21T00:55:17.890Z,985.27
2018-12-21T00:56:17.877Z,985.28
2018-12-21T00:57:17.866Z,985.24
2018-12-21T00:58:17.899Z,985.18
2018-12-21T00:59:17.847Z,985.20
2018-12-21T01:00:17.833Z,985.19
2018-12-21T01:01:17.821Z,985.17
2018-12-21T01:02:17.811Z,985.16
2018-12-21T01:03:17.823Z,985.21
2018-12-21T01:04:17.809Z,985.18
2018-12-21T01:05:17.780Z,985.15
2018-12-21T01:06:17.765Z,985.12
2018-12-21T01:07:17.755Z,985.12
2018-12-21T01:08:17.769Z,985.13
2018-12-21T01:09:17.731Z,985.11
2018-12-21T01:10:17.740Z,985.04
2018-12-21T01:11:17.710Z,985.02
2018-12-21T01:12:17.703Z,985.03
2018-12-21T01:13:17.723Z,985.00
2018-12-21T01:14:17.691Z,985.02
2018-12-21T01:15:17.668Z,984.95
2018-12-21T01:16:17.665Z,985.00
2018-12-21T01:17:17.644Z,984.98
2018-12-21T01:18:17.633Z,984.92
2018-12-21T01:19:17.648Z,985.02
2018-12-21T01:20:17.611Z,985.02
2018-12-21T01:21:17.598Z,985.02
2018-12-21T01:22:17.591Z,985.03
2018-12-21T01:23:17.579Z,985.09
2018-12-21T01:24:17.588Z,985.04
2018-12-21T01:25:17.553Z,985.09
2018-12-21T01:26:17.541Z,985.05
2018-12-21T01:27:17.591Z,985.05
2018-12-21T01:28:17.547Z,985.04
2018-12-21T01:29:17.534Z,985.04
2018-12-21T01:30:17.511Z,985.02
2018-12-21T01:31:17.488Z,985.04
2018-12-21T01:32:17.476Z,985.05
2018-12-21T01:33:17.467Z,985.08
2018-12-21T01:34:17.486Z,985.05
2018-12-21T01:35:17.441Z,985.03
2018-12-21T01:36:17.432Z,985.02
2018-12-21T01:37:17.421Z,985.01
2018-12-21T01:38:17.407Z,985.01
2018-12-21T01:39:17.430Z,985.02
2018-12-21T01:40:17.397Z,984.99
2018-12-21T01:41:17.375Z,984.98
2018-12-21T01:42:17.362Z,985.00
2018-12-21T01:43:17.352Z,985.00
2018-12-21T01:44:17.368Z,984.98
2018-12-21T01:45:17.332Z,984.95
2018-12-21T01:46:17.331Z,984.96
2018-12-21T01:47:17.309Z,984.96
2018-12-21T01:48:17.299Z,984.93
2018-12-21T01:49:17.310Z,984.94
2018-12-21T01:50:17.274Z,984.97
2018-12-21T01:51:17.262Z,984.95
2018-12-21T01:52:17.265Z,984.94
2018-12-21T01:53:17.245Z,984.94
2018-12-21T01:54:17.257Z,984.94
2018-12-21T01:55:17.228Z,984.87
2018-12-21T01:56:17.207Z,984.83
2018-12-21T01:57:17.195Z,984.85
2018-12-21T01:58:17.185Z,984.81
2018-12-21T01:59:17.218Z,984.80
2018-12-21T02:00:17.166Z,984.82
2018-12-21T02:01:17.158Z,984.79
2018-12-21T02:02:17.142Z,984.76
2018-12-21T02:03:17.130Z,984.74
2018-12-21T02:04:17.144Z,984.75
2018-12-21T02:05:17.119Z,984.71
2018-12-21T02:06:17.104Z,984.70
2018-12-21T02:07:17.087Z,984.66
2018-12-21T02:08:17.076Z,984.64
2018-12-21T02:09:17.089Z,984.66
2018-12-21T02:10:17.053Z,984.63
2018-12-21T02:11:17.053Z,984.53
2018-12-21T02:12:17.034Z,984.53
2018-12-21T02:13:17.023Z,984.52
2018-12-21T02:14:17.033Z,984.54
2018-12-21T02:15:17.000Z,984.52
2018-12-21T02:16:16.989Z,984.48
2018-12-21T02:17:16.991Z,984.46
2018-12-21T02:18:16.969Z,984.46
2018-12-21T02:19:16.981Z,984.49
2018-12-21T02:20:16.945Z,984.44
2018-12-21T02:21:16.932Z,984.45
2018-12-21T02:22:16.922Z,984.45
2018-12-21T02:23:16.927Z,984.41
2018-12-21T02:24:16.925Z,984.35
2018-12-21T02:25:16.892Z,984.34
2018-12-21T02:26:16.881Z,984.34
2018-12-21T02:27:16.868Z,984.30
2018-12-21T02:28:16.856Z,984.35
2018-12-21T02:29:16.891Z,984.33
2018-12-21T02:30:16.835Z,984.29
2018-12-21T02:31:16.826Z,984.27
2018-12-21T02:32:16.811Z,984.25
2018-12-21T02:33:16.801Z,984.28
2018-12-21T02:34:16.815Z,984.19
2018-12-21T02:35:16.813Z,984.18
2018-12-21T02:36:16.769Z,984.10
2018-12-21T02:37:16.757Z,984.17
2018-12-21T02:38:16.750Z,984.08
2018-12-21T02:39:16.761Z,984.10
2018-12-21T02:40:16.731Z,984.11
2018-12-21T02:41:16.726Z,983.98
2018-12-21T02:42:16.707Z,983.97
2018-12-21T02:43:16.692Z,983.91
2018-12-21T02:44:16.705Z,983.90
2018-12-21T02:45:16.670Z,983.92
2018-12-21T02:46:16.662Z,983.89
2018-12-21T02:47:16.655Z,983.88
2018-12-21T02:48:16.640Z,983.87
2018-12-21T02:49:16.649Z,983.85
2018-12-21T02:50:16.625Z,983.80
2018-12-21T02:51:16.616Z,983.83
2018-12-21T02:52:16.594Z,983.79
2018-12-21T02:53:16.595Z,983.79
2018-12-21T02:54:16.602Z,983.76
2018-12-21T02:55:16.556Z,983.75
2018-12-21T02:56:16.552Z,983.75
2018-12-21T02:57:16.553Z,983.78
2018-12-21T02:58:16.537Z,983.72
2018-12-21T02:59:16.549Z,983.70
2018-12-21T03:00:16.506Z,983.70
2018-12-21T03:01:16.493Z,983.67
2018-12-21T03:02:16.478Z,983.63
2018-12-21T03:03:16.481Z,983.62
2018-12-21T03:04:16.489Z,983.64
2018-12-21T03:05:16.459Z,983.56
2018-12-21T03:06:16.434Z,983.51
2018-12-21T03:07:16.427Z,983.47
2018-12-21T03:08:16.414Z,983.41
2018-12-21T03:09:16.405Z,983.44
2018-12-21T03:10:16.417Z,983.41
2018-12-21T03:11:16.393Z,983.41
2018-12-21T03:12:16.368Z,983.40
2018-12-21T03:13:16.357Z,983.37
2018-12-21T03:14:16.347Z,983.40
2018-12-21T03:15:16.358Z,983.41
2018-12-21T03:16:16.324Z,983.27
2018-12-21T03:17:16.333Z,983.32
2018-12-21T03:18:16.301Z,983.27
2018-12-21T03:19:16.291Z,983.22
2018-12-21T03:20:16.303Z,983.24
2018-12-21T03:21:16.269Z,983.27
2018-12-21T03:22:16.256Z,983.30
2018-12-21T03:23:16.257Z,983.24
2018-12-21T03:24:16.234Z,983.23
2018-12-21T03:25:16.249Z,983.25
2018-12-21T03:26:16.219Z,983.26
2018-12-21T03:27:16.204Z,983.25
2018-12-21T03:28:16.196Z,983.30
2018-12-21T03:29:16.211Z,983.27
2018-12-21T03:30:16.200Z,983.24
2018-12-21T03:31:16.160Z,983.21
2018-12-21T03:32:16.170Z,983.20
2018-12-21T03:33:16.145Z,983.16
2018-12-21T03:34:16.141Z,983.13
2018-12-21T03:35:16.160Z,983.08
2018-12-21T03:36:16.112Z,983.08
2018-12-21T03:37:16.090Z,982.99
2018-12-21T03:38:16.084Z,982.94
2018-12-21T03:39:16.070Z,982.94
2018-12-21T03:40:16.083Z,982.96
2018-12-21T03:41:16.057Z,982.94
2018-12-21T03:42:16.047Z,982.96
2018-12-21T03:43:16.025Z,982.91
2018-12-21T03:44:16.013Z,982.88
2018-12-21T03:45:16.027Z,982.86
2018-12-21T03:46:15.995Z,982.81
2018-12-21T03:47:16.007Z,982.75
2018-12-21T03:48:15.969Z,982.75
2018-12-21T03:49:15.960Z,982.75
2018-12-21T03:50:15.968Z,982.69
2018-12-21T03:51:15.936Z,982.68
2018-12-21T03:52:23.973Z,982.65
2018-12-21T03:53:16.930Z,982.66
2018-12-21T03:54:15.923Z,982.62
2018-12-21T03:55:15.914Z,982.56
2018-12-21T03:56:15.880Z,982.64
2018-12-21T03:57:15.869Z,982.66
2018-12-21T03:58:15.858Z,982.54
2018-12-21T03:59:15.865Z,982.49
2018-12-21T04:00:15.863Z,982.48
2018-12-21T04:01:15.829Z,982.47
2018-12-21T04:02:15.816Z,982.47
2018-12-21T04:03:15.804Z,982.41
2018-12-21T04:04:15.792Z,982.45
2018-12-21T04:05:15.822Z,982.41
2018-12-21T04:06:15.767Z,982.42
2018-12-21T04:07:15.757Z,982.37
2018-12-21T04:08:15.743Z,982.38
2018-12-21T04:09:15.734Z,982.36
2018-12-21T04:10:15.753Z,982.34
2018-12-21T04:11:15.742Z,982.30
2018-12-21T04:12:15.700Z,982.29
2018-12-21T04:13:15.691Z,982.23
2018-12-21T04:14:15.676Z,982.23
2018-12-21T04:15:15.691Z,982.22
2018-12-21T04:16:15.669Z,982.20
2018-12-21T04:17:15.648Z,982.15
2018-12-21T04:18:15.640Z,982.10
2018-12-21T04:19:15.622Z,982.13
2018-12-21T04:20:15.635Z,982.08
2018-12-21T04:21:15.605Z,982.09
2018-12-21T04:22:15.588Z,982.03
2018-12-21T04:23:15.587Z,982.06
2018-12-21T04:24:15.567Z,982.01
2018-12-21T04:25:15.578Z,981.93
2018-12-21T04:26:15.544Z,981.93
2018-12-21T04:27:15.534Z,981.84
2018-12-21T04:28:15.522Z,981.81
2018-12-21T04:29:15.537Z,981.74
2018-12-21T04:30:15.525Z,981.64
2018-12-21T04:31:15.488Z,981.69
2018-12-21T04:32:15.478Z,981.68
2018-12-21T04:33:15.465Z,981.63
2018-12-21T04:34:15.453Z,981.62
2018-12-21T04:35:15.472Z,981.61
2018-12-21T04:36:15.432Z,981.52
2018-12-21T04:37:15.427Z,981.40
2018-12-21T04:38:15.413Z,981.41
2018-12-21T04:39:15.401Z,981.30
2018-12-21T04:40:15.409Z,981.36
2018-12-21T04:41:15.388Z,981.35
2018-12-21T04:42:15.376Z,981.34
2018-12-21T04:43:15.354Z,981.37
2018-12-21T04:44:15.344Z,981.38
2018-12-21T04:45:15.354Z,981.28
2018-12-21T04:46:15.320Z,981.31
2018-12-21T04:47:15.309Z,981.36
2018-12-21T04:48:15.311Z,981.41
2018-12-21T04:49:15.286Z,981.40
2018-12-21T04:50:15.299Z,981.37
2018-12-21T04:51:15.364Z,981.29
2018-12-21T04:52:15.253Z,981.29
2018-12-21T04:53:15.240Z,981.23
2018-12-21T04:54:15.244Z,981.22
2018-12-21T04:55:15.242Z,981.21
2018-12-21T04:56:15.208Z,981.31
2018-12-21T04:57:15.200Z,981.31
2018-12-21T04:58:15.188Z,981.27
2018-12-21T04:59:15.176Z,981.21
2018-12-21T05:00:15.190Z,981.21
2018-12-21T05:01:15.168Z,981.20
2018-12-21T05:02:15.140Z,981.18
2018-12-21T05:03:15.132Z,981.17
2018-12-21T05:04:19.810Z,981.14
2018-12-21T05:05:16.129Z,981.16
2018-12-21T05:06:15.099Z,981.16
2018-12-21T05:07:15.093Z,981.12
2018-12-21T05:08:15.074Z,981.15
2018-12-21T05:09:15.063Z,981.12
2018-12-21T05:10:15.076Z,981.02
2018-12-21T05:11:15.068Z,981.05
2018-12-21T05:12:15.032Z,981.04
2018-12-21T05:13:15.030Z,981.10
2018-12-21T05:14:15.007Z,981.04
2018-12-21T05:15:14.995Z,981.06
2018-12-21T05:16:15.045Z,981.04
2018-12-21T05:17:14.978Z,981.11
2018-12-21T05:18:14.962Z,981.12
2018-12-21T05:19:14.962Z,981.14
2018-12-21T05:20:14.955Z,981.13
2018-12-21T05:21:14.964Z,981.11
2018-12-21T05:22:14.918Z,981.09
2018-12-21T05:23:14.908Z,981.05
2018-12-21T05:24:14.899Z,980.98
2018-12-21T05:25:14.889Z,980.98
2018-12-21T05:26:14.902Z,980.89
2018-12-21T05:27:14.872Z,980.89
2018-12-21T05:28:14.855Z,980.84
2018-12-21T05:29:14.840Z,980.82
2018-12-21T05:30:14.831Z,980.83
2018-12-21T05:31:14.842Z,980.78
2018-12-21T05:32:14.808Z,980.76
2018-12-21T05:33:14.823Z,980.74
2018-12-21T05:34:14.787Z,980.72
2018-12-21T05:35:14.776Z,980.68
2018-12-21T05:36:14.786Z,980.64
2018-12-21T05:37:14.754Z,980.58
2018-12-21T05:38:14.740Z,980.57
2018-12-21T05:39:14.743Z,980.52
2018-12-21T05:40:14.719Z,980.44
2018-12-21T05:41:14.731Z,980.41
2018-12-21T05:42:14.697Z,980.35
2018-12-21T05:43:14.688Z,980.33
2018-12-21T05:44:14.673Z,980.24
2018-12-21T05:45:14.669Z,980.23
2018-12-21T05:46:14.691Z,980.17
2018-12-21T05:47:14.641Z,980.13
2018-12-21T05:48:14.630Z,980.12
2018-12-21T05:49:14.623Z,980.11
2018-12-21T05:50:14.607Z,980.11
2018-12-21T05:51:14.603Z,980.07
2018-12-21T05:52:14.610Z,980.03
2018-12-21T05:53:14.577Z,979.96
2018-12-21T05:54:14.563Z,979.92
2018-12-21T05:55:14.555Z,979.89
2018-12-21T05:56:14.546Z,979.92
2018-12-21T05:57:14.561Z,979.87
2018-12-21T05:58:14.520Z,979.79
2018-12-21T05:59:14.508Z,979.79
2018-12-21T06:00:14.495Z,979.77
2018-12-21T06:01:14.486Z,979.76
2018-12-21T06:02:14.495Z,979.64
2018-12-21T06:03:14.463Z,979.59
2018-12-21T06:04:14.460Z,979.61
2018-12-21T06:05:14.439Z,979.70
2018-12-21T06:06:14.431Z,979.65
2018-12-21T06:07:14.441Z,979.64
2018-12-21T06:08:14.408Z,979.56
2018-12-21T06:09:14.397Z,979.56
2018-12-21T06:10:14.384Z,979.53
2018-12-21T06:11:14.375Z,979.57
2018-12-21T06:12:14.387Z,979.47
2018-12-21T06:13:14.350Z,979.41
2018-12-21T06:14:14.348Z,979.42
2018-12-21T06:15:14.327Z,979.42
2018-12-21T06:16:14.315Z,979.45
2018-12-21T06:17:14.328Z,979.47
2018-12-21T06:18:14.296Z,979.45
2018-12-21T06:19:14.301Z,979.39
2018-12-21T06:20:14.293Z,979.26
2018-12-21T06:21:14.270Z,979.26
2018-12-21T06:22:14.285Z,979.20
2018-12-21T06:23:14.239Z,979.19
2018-12-21T06:24:14.230Z,979.18
2018-12-21T06:25:14.229Z,979.14
2018-12-21T06:26:14.203Z,979.11
2018-12-21T06:27:14.233Z,979.04
2018-12-21T06:28:14.183Z,979.00
2018-12-21T06:29:14.174Z,979.01
2018-12-21T06:30:14.168Z,979.03
2018-12-21T06:31:14.151Z,979.03
2018-12-21T06:32:14.139Z,978.92
2018-12-21T06:33:14.152Z,978.91
2018-12-21T06:34:14.129Z,978.87
2018-12-21T06:35:14.118Z,978.83
2018-12-21T06:36:14.130Z,978.85
2018-12-21T06:37:14.084Z,978.85
2018-12-21T06:38:14.093Z,978.84
2018-12-21T06:39:14.059Z,978.86
2018-12-21T06:40:14.048Z,978.85
2018-12-21T06:41:14.039Z,978.81
2018-12-21T06:42:14.031Z,978.81
2018-12-21T06:43:14.041Z,978.79
2018-12-21T06:44:14.005Z,978.73
2018-12-21T06:45:14.072Z,978.77
2018-12-21T06:46:14.514Z,978.66
2018-12-21T06:47:13.974Z,978.71
2018-12-21T06:48:13.999Z,978.66
2018-12-21T06:49:13.956Z,978.64
2018-12-21T06:50:13.935Z,978.64
2018-12-21T06:51:13.936Z,978.54
2018-12-21T06:52:13.916Z,978.56
2018-12-21T06:53:17.944Z,978.55
2018-12-21T06:54:13.900Z,978.51
2018-12-21T06:55:13.882Z,978.50
2018-12-21T06:56:13.868Z,978.43
2018-12-21T06:57:13.874Z,978.36
2018-12-21T06:58:13.894Z,978.38
2018-12-21T06:59:13.847Z,978.36
2018-12-21T07:00:13.839Z,978.39
2018-12-21T07:01:13.849Z,978.34
2018-12-21T07:02:13.801Z,978.35
2018-12-21T07:03:17.235Z,978.36
2018-12-21T07:04:13.789Z,978.36
2018-12-21T07:05:13.795Z,978.34
2018-12-21T07:06:13.784Z,978.32
2018-12-21T07:07:13.755Z,978.31
2018-12-21T07:08:13.765Z,978.25
2018-12-21T07:09:13.732Z,978.31
2018-12-21T07:10:13.711Z,978.24
2018-12-21T07:11:13.703Z,978.21
2018-12-21T07:12:13.691Z,978.22
2018-12-21T07:13:13.708Z,978.18
2018-12-21T07:14:13.683Z,978.20
2018-12-21T07:15:13.656Z,978.23
2018-12-21T07:16:13.646Z,978.13
2018-12-21T07:17:13.633Z,978.16
2018-12-21T07:18:13.650Z,978.15
2018-12-21T07:19:13.619Z,978.11
2018-12-21T07:20:13.607Z,978.25
2018-12-21T07:21:13.591Z,978.13
2018-12-21T07:22:13.576Z,978.17
2018-12-21T07:23:13.597Z,978.17
2018-12-21T07:24:13.559Z,978.18
2018-12-21T07:25:13.545Z,978.16
2018-12-21T07:26:13.533Z,978.15
2018-12-21T07:27:13.523Z,978.10
2018-12-21T07:28:13.532Z,978.04
2018-12-21T07:29:13.498Z,978.03
2018-12-21T07:30:13.487Z,978.01
2018-12-21T07:31:13.505Z,978.03
2018-12-21T07:32:13.497Z,977.95
2018-12-21T07:33:13.492Z,977.99
2018-12-21T07:34:13.461Z,977.92
2018-12-21T07:35:13.449Z,977.98
2018-12-21T07:36:13.439Z,978.04
2018-12-21T07:37:13.419Z,977.96
2018-12-21T07:38:13.402Z,978.00
2018-12-21T07:39:13.411Z,977.98
2018-12-21T07:40:13.375Z,977.99
2018-12-21T07:41:13.365Z,977.94
2018-12-21T07:42:13.360Z,977.89
2018-12-21T07:43:13.355Z,977.93
2018-12-21T07:44:13.366Z,977.95
2018-12-21T07:45:13.326Z,977.85
2018-12-21T07:46:13.333Z,977.93
2018-12-21T07:47:13.298Z,977.85
2018-12-21T07:48:13.289Z,977.79
2018-12-21T07:49:13.425Z,977.85
2018-12-21T07:50:13.281Z,977.77
2018-12-21T07:51:13.252Z,977.73
2018-12-21T07:52:13.250Z,977.71
2018-12-21T07:53:13.229Z,977.70
2018-12-21T07:54:13.251Z,977.69
2018-12-21T07:55:13.209Z,977.65
2018-12-21T07:56:13.282Z,977.55
2018-12-21T07:57:13.187Z,977.57
2018-12-21T07:58:13.181Z,977.60
2018-12-21T07:59:13.191Z,977.59
2018-12-21T08:00:13.152Z,977.58
2018-12-21T08:01:13.143Z,977.59
2018-12-21T08:02:13.129Z,977.48
2018-12-21T08:03:13.121Z,977.53
2018-12-21T08:04:13.130Z,977.49
2018-12-21T08:05:13.095Z,977.55
2018-12-21T08:06:13.083Z,977.47
2018-12-21T08:07:13.079Z,977.51
2018-12-21T08:08:13.063Z,977.46
2018-12-21T08:09:13.080Z,977.49
2018-12-21T08:10:13.045Z,977.46
2018-12-21T08:11:13.028Z,977.36
2018-12-21T08:12:13.022Z,977.35
2018-12-21T08:13:13.009Z,977.34
2018-12-21T08:14:13.022Z,977.23
2018-12-21T08:15:12.983Z,977.15
2018-12-21T08:16:12.975Z,977.12
2018-12-21T08:17:12.962Z,977.11
2018-12-21T08:18:12.950Z,977.07
2018-12-21T08:19:12.964Z,977.00
2018-12-21T08:20:12.932Z,977.01
2018-12-21T08:21:12.915Z,977.06
2018-12-21T08:22:12.909Z,977.05
2018-12-21T08:23:12.905Z,976.97
2018-12-21T08:24:12.909Z,976.96
2018-12-21T08:25:12.875Z,976.91
2018-12-21T08:26:12.860Z,976.81
2018-12-21T08:27:12.850Z,976.84
2018-12-21T08:28:12.840Z,976.81
2018-12-21T08:29:12.857Z,976.79
2018-12-21T08:30:12.817Z,976.64
2018-12-21T08:31:12.805Z,976.58
2018-12-21T08:32:12.795Z,976.47
2018-12-21T08:33:12.782Z,976.48
2018-12-21T08:34:12.807Z,976.45
2018-12-21T08:35:12.761Z,976.45
2018-12-21T08:36:12.748Z,976.41
2018-12-21T08:37:12.738Z,976.35
2018-12-21T08:38:12.731Z,976.33
2018-12-21T08:39:12.728Z,976.35
2018-12-21T08:40:12.733Z,976.18
2018-12-21T08:41:12.694Z,976.08
2018-12-21T08:42:12.683Z,975.97
2018-12-21T08:43:12.672Z,975.97
2018-12-21T08:44:12.663Z,975.94
2018-12-21T08:45:12.694Z,975.81
2018-12-21T08:46:12.638Z,975.89
2018-12-21T08:47:12.635Z,975.91
2018-12-21T08:48:12.618Z,975.65
2018-12-21T08:49:12.605Z,975.79
2018-12-21T08:50:12.627Z,975.82
2018-12-21T08:51:12.585Z,975.75
2018-12-21T08:52:12.575Z,975.74
2018-12-21T08:53:12.564Z,975.84
2018-12-21T08:54:12.552Z,975.96
2018-12-21T08:55:12.566Z,975.94
2018-12-21T08:56:12.531Z,975.79
2018-12-21T08:57:12.516Z,975.83
2018-12-21T08:58:12.508Z,975.88
2018-12-21T08:59:12.501Z,975.78
2018-12-21T09:00:12.506Z,975.81
2018-12-21T09:01:12.478Z,975.75
2018-12-21T09:02:12.462Z,975.73
2018-12-21T09:03:12.451Z,975.78
2018-12-21T09:04:12.444Z,975.64
2018-12-21T09:05:12.455Z,975.58
2018-12-21T09:06:18.403Z,975.56
2018-12-21T09:07:13.406Z,975.53
2018-12-21T09:08:12.395Z,975.61
2018-12-21T09:09:12.386Z,975.62
2018-12-21T09:10:12.398Z,975.58
2018-12-21T09:11:12.362Z,975.55
2018-12-21T09:12:12.352Z,975.58
2018-12-21T09:13:12.343Z,975.59
2018-12-21T09:14:12.330Z,975.56
2018-12-21T09:15:12.341Z,975.49
2018-12-21T09:16:12.306Z,975.47
2018-12-21T09:17:12.298Z,975.38
2018-12-21T09:18:12.286Z,975.33
2018-12-21T09:19:12.273Z,975.35
2018-12-21T09:20:12.287Z,975.36
2018-12-21T09:21:12.254Z,975.35
2018-12-21T09:22:12.244Z,975.31
2018-12-21T09:23:12.271Z,975.31
2018-12-21T09:24:12.219Z,975.22
2018-12-21T09:25:12.230Z,975.26
2018-12-21T09:26:12.198Z,975.25
2018-12-21T09:27:12.185Z,975.17
2018-12-21T09:28:12.175Z,975.25
2018-12-21T09:29:12.166Z,975.29
2018-12-21T09:30:12.176Z,975.28
2018-12-21T09:31:12.145Z,975.16
2018-12-21T09:32:12.136Z,975.20
2018-12-21T09:33:12.119Z,975.23
2018-12-21T09:34:12.111Z,975.18
2018-12-21T09:35:12.133Z,975.21
2018-12-21T09:36:12.087Z,975.18
2018-12-21T09:37:12.082Z,975.20
2018-12-21T09:38:12.066Z,975.16
2018-12-21T09:39:12.053Z,975.19
2018-12-21T09:40:12.043Z,975.18
2018-12-21T09:41:12.054Z,975.16
2018-12-21T09:42:12.021Z,975.19
2018-12-21T09:43:12.010Z,975.16
2018-12-21T09:44:11.999Z,975.11
2018-12-21T09:45:11.988Z,975.11
2018-12-21T09:46:12.005Z,975.06
2018-12-21T09:47:11.964Z,975.06
2018-12-21T09:48:11.954Z,975.10
2018-12-21T09:49:11.946Z,975.08
2018-12-21T09:50:11.930Z,975.08
2018-12-21T09:51:11.943Z,975.03
2018-12-21T09:52:11.910Z,975.02
2018-12-21T09:53:11.900Z,975.03
2018-12-21T09:54:11.893Z,975.07
2018-12-21T09:55:11.875Z,974.94
2018-12-21T09:56:11.896Z,974.90
2018-12-21T09:57:11.853Z,974.91
2018-12-21T09:58:11.852Z,974.94
2018-12-21T09:59:11.833Z,975.04
2018-12-21T10:00:11.837Z,975.02
2018-12-21T10:01:11.834Z,974.95
2018-12-21T10:02:11.798Z,974.96
2018-12-21T10:03:11.788Z,974.88
2018-12-21T10:04:11.777Z,974.89
2018-12-21T10:05:11.767Z,974.86
2018-12-21T10:06:11.777Z,974.79
2018-12-21T10:07:11.744Z,974.79
2018-12-21T10:08:11.738Z,974.82
2018-12-21T10:09:11.722Z,974.81
2018-12-21T10:10:11.709Z,974.79
2018-12-21T10:11:11.842Z,974.82
2018-12-21T10:12:11.688Z,974.75
2018-12-21T10:13:11.678Z,974.75
2018-12-21T10:14:11.667Z,974.74
2018-12-21T10:15:11.656Z,974.64
2018-12-21T10:16:11.669Z,974.61
2018-12-21T10:17:11.636Z,974.56
2018-12-21T10:18:11.622Z,974.71
2018-12-21T10:19:11.613Z,974.76
2018-12-21T10:20:11.605Z,974.67
2018-12-21T10:21:11.614Z,974.62
2018-12-21T10:22:11.577Z,974.57
2018-12-21T10:23:11.567Z,974.62
2018-12-21T10:24:18.414Z,974.53
2018-12-21T10:25:12.623Z,974.54
2018-12-21T10:26:11.560Z,974.57
2018-12-21T10:27:11.524Z,974.52
2018-12-21T10:28:11.515Z,974.48
2018-12-21T10:29:11.503Z,974.46
2018-12-21T10:30:11.492Z,974.42
2018-12-21T10:31:11.502Z,974.48
2018-12-21T10:32:11.467Z,974.48
2018-12-21T10:33:11.456Z,974.38
2018-12-21T10:34:11.446Z,974.43
2018-12-21T10:35:11.434Z,974.42
2018-12-21T10:36:11.458Z,974.38
2018-12-21T10:37:11.413Z,974.37
2018-12-21T10:38:11.402Z,974.32
2018-12-21T10:39:11.398Z,974.36
2018-12-21T10:40:11.381Z,974.35
2018-12-21T10:41:11.385Z,974.35
2018-12-21T10:42:11.390Z,974.33
2018-12-21T10:43:11.347Z,974.37
2018-12-21T10:44:11.349Z,974.35
2018-12-21T10:45:11.330Z,974.37
2018-12-21T10:46:11.312Z,974.32
2018-12-21T10:47:11.332Z,974.28
2018-12-21T10:48:11.305Z,974.26
2018-12-21T10:49:11.293Z,974.31
2018-12-21T10:50:11.301Z,974.27
2018-12-21T10:51:11.287Z,974.22
2018-12-21T10:52:11.270Z,974.24
2018-12-21T10:53:11.241Z,974.24
2018-12-21T10:54:11.228Z,974.15
2018-12-21T10:55:11.219Z,974.18
2018-12-21T10:56:11.218Z,974.12
2018-12-21T10:57:11.218Z,974.15
2018-12-21T10:58:11.192Z,974.19
2018-12-21T10:59:11.167Z,974.15
2018-12-21T11:00:11.157Z,974.07
2018-12-21T11:01:11.159Z,974.09
2018-12-21T11:02:11.160Z,974.05
2018-12-21T11:03:11.122Z,974.15
2018-12-21T11:04:11.123Z,974.07
2018-12-21T11:05:11.103Z,974.06
2018-12-21T11:06:11.128Z,974.06
2018-12-21T11:07:11.131Z,974.06
2018-12-21T11:08:11.069Z,974.01
2018-12-21T11:09:11.065Z,973.98
2018-12-21T11:10:11.050Z,973.97
2018-12-21T11:11:11.039Z,974.00
2018-12-21T11:12:11.071Z,973.92
2018-12-21T11:13:11.011Z,974.00
2018-12-21T11:14:10.999Z,973.93
2018-12-21T11:15:10.987Z,973.94
2018-12-21T11:16:10.978Z,973.93
2018-12-21T11:17:10.989Z,973.94
2018-12-21T11:18:10.964Z,973.83
2018-12-21T11:19:10.942Z,973.96
2018-12-21T11:20:10.940Z,973.91
2018-12-21T11:21:10.919Z,973.91
2018-12-21T11:22:10.938Z,973.90
2018-12-21T11:23:10.898Z,973.90
2018-12-21T11:24:10.901Z,973.79
2018-12-21T11:25:10.899Z,973.80
2018-12-21T11:26:10.879Z,973.78
2018-12-21T11:27:10.899Z,973.76
2018-12-21T11:28:10.869Z,973.79
2018-12-21T11:29:10.834Z,973.80
2018-12-21T11:30:10.822Z,973.79
2018-12-21T11:31:10.847Z,973.71
2018-12-21T11:32:10.843Z,973.82
2018-12-21T11:33:10.816Z,973.83
2018-12-21T11:34:10.794Z,973.80
2018-12-21T11:35:10.774Z,973.72
2018-12-21T11:36:10.753Z,973.83
2018-12-21T11:37:10.790Z,973.79
2018-12-21T11:38:10.750Z,973.84
2018-12-21T11:39:10.749Z,973.83
2018-12-21T11:40:10.729Z,973.79
2018-12-21T11:41:10.708Z,973.78
2018-12-21T11:42:10.690Z,973.86
2018-12-21T11:43:10.699Z,973.86
2018-12-21T11:44:10.664Z,973.87
2018-12-21T11:45:10.657Z,973.77
2018-12-21T11:46:10.641Z,973.87
2018-12-21T11:47:10.640Z,973.89
2018-12-21T11:48:10.667Z,973.90
2018-12-21T11:49:10.615Z,973.88
2018-12-21T11:50:10.609Z,973.91
2018-12-21T11:51:10.591Z,973.91
2018-12-21T11:52:10.577Z,973.88
2018-12-21T11:53:10.619Z,974.02
2018-12-21T11:54:10.560Z,973.90
2018-12-21T11:55:10.545Z,973.95
2018-12-21T11:56:10.533Z,974.03
2018-12-21T11:57:10.520Z,973.94
2018-12-21T11:58:10.529Z,973.82
2018-12-21T11:59:10.495Z,973.93
2018-12-21T12:00:10.487Z,973.87
2018-12-21T12:01:10.495Z,973.85
2018-12-21T12:02:10.493Z,973.90
2018-12-21T12:03:10.473Z,973.85
2018-12-21T12:04:10.441Z,974.01
2018-12-21T12:05:10.438Z,973.84
2018-12-21T12:06:10.426Z,973.82
2018-12-21T12:07:10.426Z,973.87
2018-12-21T12:08:10.424Z,973.81
2018-12-21T12:09:10.396Z,973.91
2018-12-21T12:10:10.374Z,973.88
2018-12-21T12:11:10.408Z,973.74
2018-12-21T12:12:10.367Z,973.78
2018-12-21T12:13:10.378Z,973.82
2018-12-21T12:14:10.331Z,973.75
2018-12-21T12:15:10.344Z,973.85
2018-12-21T12:16:10.311Z,973.82
2018-12-21T12:17:10.305Z,973.84
2018-12-21T12:18:10.333Z,973.79
2018-12-21T12:19:10.290Z,973.80
2018-12-21T12:20:10.262Z,973.85
2018-12-21T12:21:10.266Z,973.83
2018-12-21T12:22:10.263Z,973.73
2018-12-21T12:23:10.267Z,973.83
2018-12-21T12:24:10.264Z,973.85
2018-12-21T12:25:10.212Z,973.79
2018-12-21T12:26:10.215Z,973.91
2018-12-21T12:27:10.186Z,973.86
2018-12-21T12:28:10.198Z,973.85